Christian Radich — LJLM — position and weather

sailwx.info

Track history (hours):
 
Tides and Currents Weather Stations Pressure Air Temp Water Temp Dewpoint Dewpoint Depression Visibility Wind Speed Wind Dir Waves Ship Positions

Christian Radich (Norway)

Last reported at 2017-Sep-22 02:00 UTC. Time now 2017-Sep-22 15:21 UTC.
Position N 53°10' E 004°21'.

Length 63 m; draft 5 m.

MMSI: 258373000.

Date/timePositionNaut miles runAvg speedWind from/ knotsBaromVisibWave heightAir tempDewpointWater temp
2017-Sep-22 02:00N 53°10' E 004°21'3 5.8
2017-Sep-22 01:30N 53°12' E 004°24'3 5.9
2017-Sep-22 01:00N 53°15' E 004°26'3 5.9
2017-Sep-22 00:31N 53°18' E 004°28'3 5.7
2017-Sep-22 00:00N 53°20' E 004°29'3 5.7
2017-Sep-21 23:31N 53°23' E 004°31'3 6.7
2017-Sep-21 23:00N 53°26' E 004°33'3 6.4
2017-Sep-21 22:30N 53°29' E 004°35'3 6.4
2017-Sep-21 22:01N 53°32' E 004°37'3 6.1
2017-Sep-21 21:27N 53°35' E 004°39'2 4.6
2017-Sep-21 20:58N 53°37' E 004°42'3 5.6
2017-Sep-21 20:31N 53°37' E 004°46'3 5.4
2017-Sep-21 20:01N 53°38' E 004°50'3 5.1
2017-Sep-21 19:29N 53°39' E 004°54'2 4.8
2017-Sep-21 19:01N 53°40' E 004°58'2 4.7
2017-Sep-21 18:30N 53°40' E 005°02'2 3.3
2017-Sep-21 18:00N 53°41' E 005°04'28 5.4
2017-Sep-21 12:52N 53°51' E 005°48'2 5.5
2017-Sep-21 12:29N 53°52' E 005°51'4 6.0
2017-Sep-21 11:47N 53°53' E 005°58'9 5.2
2017-Sep-21 10:04N 53°58' E 006°11'75 4.9
2017-Sep-20 18:38N 55°12' E 006°29'1 5.7
2017-Sep-20 18:22N 55°13' E 006°29'2 5.6
2017-Sep-20 17:58N 55°16' E 006°29'2 5.0
2017-Sep-20 17:30N 55°18' E 006°29'3 5.4
2017-Sep-20 17:00N 55°21' E 006°28'3 5.4
2017-Sep-20 16:27N 55°24' E 006°28'3 5.5
2017-Sep-20 15:55N 55°27' E 006°27'37 5.1
2017-Sep-20 08:39N 56°03' E 006°24'1 5.2
2017-Sep-20 08:29N 56°04' E 006°24'2 4.6
2017-Sep-20 08:00N 56°06' E 006°24'2 3.1
2017-Sep-20 07:30N 56°08' E 006°24'2 3.1
2017-Sep-20 07:00N 56°10' E 006°24'114 4.9
2017-Sep-19 07:59N 57°46' E 008°13'3 6.8
2017-Sep-19 07:30N 57°50' E 008°14'4 8.1
2017-Sep-19 07:00N 57°52' E 008°21'18 8.3
2017-Sep-19 04:49N 58°03' E 008°48'3 9.0
2017-Sep-19 04:29N 58°05' E 008°52'7 8.9
2017-Sep-19 03:41N 58°10' E 009°01'2 9.2
2017-Sep-19 03:30N 58°11' E 009°03'37 8.8
2017-Sep-18 23:19N 58°37' E 009°55'3 8.5
2017-Sep-18 23:00N 58°38' E 009°59'4 8.2
2017-Sep-18 22:30N 58°40' E 010°06'4 7.6
2017-Sep-18 22:01N 58°42' E 010°12'4 7.3
2017-Sep-18 21:30N 58°45' E 010°16'3 7.0
2017-Sep-18 21:00N 58°48' E 010°20'3 6.4
2017-Sep-18 20:30N 58°51' E 010°24'3 6.4
2017-Sep-18 20:00N 58°53' E 010°28'3 6.7
2017-Sep-18 19:30N 58°56' E 010°32'3 6.6
2017-Sep-18 19:01N 58°58' E 010°36'4 7.1
2017-Sep-18 18:30N 59°02' E 010°37'4 7.3
2017-Sep-18 18:00N 59°05' E 010°38'4 7.5
2017-Sep-18 17:30N 59°09' E 010°38'4 7.9
2017-Sep-18 17:00N 59°13' E 010°37'4 8.0
2017-Sep-18 16:30N 59°17' E 010°36'4 7.8
2017-Sep-18 16:00N 59°21' E 010°35'4 8.1
2017-Sep-18 15:30N 59°25' E 010°33'4 8.1
2017-Sep-18 15:00N 59°29' E 010°34'4 7.7
2017-Sep-18 14:30N 59°33' E 010°36'3 6.8
2017-Sep-18 14:00N 59°36' E 010°37'3 6.9
2017-Sep-18 13:30N 59°39' E 010°37'4 7.5
2017-Sep-18 13:00N 59°43' E 010°35'4 7.9
2017-Sep-18 12:30N 59°47' E 010°34'4 7.6
2017-Sep-18 12:00N 59°51' E 010°36'4 7.8
2017-Sep-18 11:29N 59°54' E 010°42'1 3.1
2017-Sep-18 11:00N 59°54' E 010°44'0 0.0
2017-Sep-18 10:28N 59°54' E 010°44'0 0.0
2017-Sep-18 09:58N 59°54' E 010°44'0 0.0
2017-Sep-18 09:28N 59°54' E 010°44'0 0.0
2017-Sep-18 08:59N 59°54' E 010°44'0 0.0
2017-Sep-18 08:29N 59°54' E 010°44'0 0.0
2017-Sep-18 07:59N 59°54' E 010°44'0 0.0
2017-Sep-18 07:29N 59°54' E 010°44'0 0.5
2017-Sep-18 07:00N 59°54' E 010°44'0 0.3
2017-Sep-18 06:30N 59°54' E 010°44'0 0.0
2017-Sep-18 05:58N 59°54' E 010°44'0 0.0
2017-Sep-18 05:28N 59°54' E 010°44'0 0.0
2017-Sep-18 04:59N 59°54' E 010°44'0 0.0
2017-Sep-18 04:29N 59°54' E 010°44'0 0.0
2017-Sep-18 03:59N 59°54' E 010°44'0 0.0
2017-Sep-18 03:29N 59°54' E 010°44'0 0.0
2017-Sep-18 03:00N 59°54' E 010°44'0 0.0
2017-Sep-18 02:30N 59°54' E 010°44'0 0.0
2017-Sep-18 02:00N 59°54' E 010°44'0 0.0
2017-Sep-18 01:28N 59°54' E 010°44'0 0.0
2017-Sep-18 00:58N 59°54' E 010°44'0 0.0
2017-Sep-18 00:29N 59°54' E 010°44'0 0.0
2017-Sep-17 23:59N 59°54' E 010°44'0 0.0
2017-Sep-17 23:29N 59°54' E 010°44'0 0.0
2017-Sep-17 23:00N 59°54' E 010°44'0 0.0
2017-Sep-17 22:30N 59°54' E 010°44'0 0.0
2017-Sep-17 22:00N 59°54' E 010°44'0 0.0
2017-Sep-17 21:31N 59°54' E 010°44'0 0.0
2017-Sep-17 20:58N 59°54' E 010°44'0 0.0
2017-Sep-17 20:28N 59°54' E 010°44'0 0.0
2017-Sep-17 19:59N 59°54' E 010°44'0 0.0
2017-Sep-17 19:29N 59°54' E 010°44'0 0.0
2017-Sep-17 18:59N 59°54' E 010°44'0 0.0
2017-Sep-17 18:29N 59°54' E 010°44'0 0.0
2017-Sep-17 18:00N 59°54' E 010°44'0 0.0
2017-Sep-17 17:30N 59°54' E 010°44'0 0.0
2017-Sep-17 17:00N 59°54' E 010°44'0 0.0
2017-Sep-17 16:28N 59°54' E 010°44'0 0.0
2017-Sep-17 15:58N 59°54' E 010°44'0 0.0
2017-Sep-17 15:29N 59°54' E 010°44'0 0.0
2017-Sep-17 14:59N 59°54' E 010°44'0 0.0
2017-Sep-17 14:29N 59°54' E 010°44'0 0.0
2017-Sep-17 13:59N 59°54' E 010°44'0 0.0
2017-Sep-17 13:30N 59°54' E 010°44'0 0.0
2017-Sep-17 13:00N 59°54' E 010°44'0 0.0
2017-Sep-17 12:30N 59°54' E 010°44'0 0.0
2017-Sep-17 11:58N 59°54' E 010°44'0 0.0
2017-Sep-17 11:28N 59°54' E 010°44'0 0.0
2017-Sep-17 10:59N 59°54' E 010°44'0 0.0
2017-Sep-17 10:29N 59°54' E 010°44'0 0.0
2017-Sep-17 09:59N 59°54' E 010°44'0 0.0
2017-Sep-17 09:30N 59°54' E 010°44'0 0.0
2017-Sep-17 09:00N 59°54' E 010°44'0 0.0
2017-Sep-17 08:30N 59°54' E 010°44'0 0.0
2017-Sep-17 08:00N 59°54' E 010°44'0 0.0
2017-Sep-17 07:28N 59°54' E 010°44'0 0.0
2017-Sep-17 06:58N 59°54' E 010°44'0 0.0
2017-Sep-17 06:29N 59°54' E 010°44'0 0.0
2017-Sep-17 05:59N 59°54' E 010°44'0 0.0
2017-Sep-17 05:29N 59°54' E 010°44'0 0.0
2017-Sep-17 05:00N 59°54' E 010°44'0 0.0
2017-Sep-17 04:30N 59°54' E 010°44'0 0.0
2017-Sep-17 04:00N 59°54' E 010°44'0 0.0
2017-Sep-17 03:31N 59°54' E 010°44'0 0.0
2017-Sep-17 02:58N 59°54' E 010°44'0 0.0
2017-Sep-17 02:28N 59°54' E 010°44'0 0.0
2017-Sep-17 01:59N 59°54' E 010°44'0 0.0
2017-Sep-17 01:29N 59°54' E 010°44'0 0.0
2017-Sep-17 00:59N 59°54' E 010°44'0 0.0
2017-Sep-17 00:30N 59°54' E 010°44'0 0.0
2017-Sep-17 00:00N 59°54' E 010°44'0 0.0
2017-Sep-16 23:30N 59°54' E 010°44'0 0.0
2017-Sep-16 22:58N 59°54' E 010°44'0 0.0
2017-Sep-16 22:25N 59°54' E 010°44'0 0.0
2017-Sep-16 21:58N 59°54' E 010°44'0 0.0
2017-Sep-16 21:29N 59°54' E 010°44'0 0.0
2017-Sep-16 20:59N 59°54' E 010°44'0 0.0
2017-Sep-16 20:29N 59°54' E 010°44'0 0.0
2017-Sep-16 20:00N 59°54' E 010°44'0 0.0
2017-Sep-16 19:30N 59°54' E 010°44'0 0.0
2017-Sep-16 19:00N 59°54' E 010°44'0 0.0
2017-Sep-16 18:28N 59°54' E 010°44'0 0.0
2017-Sep-16 17:58N 59°54' E 010°44'0 0.0
2017-Sep-16 17:28N 59°54' E 010°44'0 0.0
2017-Sep-16 16:58N 59°54' E 010°44'0 0.0
2017-Sep-16 16:28N 59°54' E 010°44'0 0.0
2017-Sep-16 15:58N 59°54' E 010°44'0 0.0
2017-Sep-16 15:29N 59°54' E 010°44'0 0.0
2017-Sep-16 14:59N 59°54' E 010°44'0 0.0
2017-Sep-16 14:29N 59°54' E 010°44'0 0.0
2017-Sep-16 14:00N 59°54' E 010°44'0 0.0
2017-Sep-16 13:30N 59°54' E 010°44'0 0.0
2017-Sep-16 13:00N 59°54' E 010°44'0 0.0
2017-Sep-16 12:28N 59°54' E 010°44'0 0.0
2017-Sep-16 11:58N 59°54' E 010°44'0 0.0
2017-Sep-16 11:28N 59°54' E 010°44'0 0.0
2017-Sep-16 10:59N 59°54' E 010°44'0 0.0
2017-Sep-16 10:29N 59°54' E 010°44'0 0.0
2017-Sep-16 09:59N 59°54' E 010°44'0 0.0
2017-Sep-16 09:30N 59°54' E 010°44'0 0.0
2017-Sep-16 09:00N 59°54' E 010°44'0 0.0
2017-Sep-16 08:30N 59°54' E 010°44'0 0.0
2017-Sep-16 07:58N 59°54' E 010°44'0 0.0
2017-Sep-16 07:28N 59°54' E 010°44'0 0.0
2017-Sep-16 06:58N 59°54' E 010°44'0 0.0
2017-Sep-16 06:29N 59°54' E 010°44'0 0.0
2017-Sep-16 05:59N 59°54' E 010°44'0 0.0
2017-Sep-16 05:29N 59°54' E 010°44'0 0.0
2017-Sep-16 05:00N 59°54' E 010°44'0 0.0
2017-Sep-16 04:30N 59°54' E 010°44'0 0.0
2017-Sep-16 03:55N 59°54' E 010°44'0 0.0
2017-Sep-16 03:28N 59°54' E 010°44'0 0.0
2017-Sep-16 02:58N 59°54' E 010°44'0 0.0
2017-Sep-16 02:29N 59°54' E 010°44'0 0.0
2017-Sep-16 01:59N 59°54' E 010°44'0 0.0
2017-Sep-16 01:29N 59°54' E 010°44'0 0.0
2017-Sep-16 01:00N 59°54' E 010°44'0 0.0
2017-Sep-16 00:30N 59°54' E 010°44'0 0.0
2017-Sep-16 00:00N 59°54' E 010°44'0 0.0
2017-Sep-15 23:31N 59°54' E 010°44'0 0.0
2017-Sep-15 22:58N 59°54' E 010°44'0 0.0
2017-Sep-15 22:28N 59°54' E 010°44'0 0.0
2017-Sep-15 21:59N 59°54' E 010°44'0 0.0
2017-Sep-15 21:29N 59°54' E 010°44'0 0.0
2017-Sep-15 20:59N 59°54' E 010°44'0 0.0
2017-Sep-15 20:30N 59°54' E 010°44'0 0.0
2017-Sep-15 20:00N 59°54' E 010°44'0 0.0
2017-Sep-15 19:30N 59°54' E 010°44'0 0.0
2017-Sep-15 18:58N 59°54' E 010°44'0 0.0
2017-Sep-15 18:28N 59°54' E 010°44'0 0.0
2017-Sep-15 17:58N 59°54' E 010°44'0 0.0
2017-Sep-15 17:29N 59°54' E 010°44'0 0.0
2017-Sep-15 16:59N 59°54' E 010°44'0 0.0
2017-Sep-15 16:29N 59°54' E 010°44'0 0.0
2017-Sep-15 16:00N 59°54' E 010°44'0 0.0
2017-Sep-15 15:30N 59°54' E 010°44'0 0.0
2017-Sep-15 15:00N 59°54' E 010°44'0 0.0
2017-Sep-15 14:28N 59°54' E 010°44'0 0.0
2017-Sep-15 13:58N 59°54' E 010°44'0 0.0
2017-Sep-15 13:28N 59°54' E 010°44'0 0.0
2017-Sep-15 12:59N 59°54' E 010°44'0 0.0
2017-Sep-15 12:29N 59°54' E 010°44'0 0.0
2017-Sep-15 11:59N 59°54' E 010°44'0 0.0
2017-Sep-15 11:30N 59°54' E 010°44'0 0.0
2017-Sep-15 11:00N 59°54' E 010°44'0 0.0
2017-Sep-15 10:30N 59°54' E 010°44'0 0.0
2017-Sep-15 09:58N 59°54' E 010°44'0 0.0
2017-Sep-15 09:28N 59°54' E 010°44'0 0.0
2017-Sep-15 08:58N 59°54' E 010°44'0 0.0
2017-Sep-15 08:29N 59°54' E 010°44'0 0.0
2017-Sep-15 07:59N 59°54' E 010°44'0 0.0
2017-Sep-15 07:29N 59°54' E 010°44'0 0.0
2017-Sep-15 07:00N 59°54' E 010°44'0 0.0
2017-Sep-15 06:30N 59°54' E 010°44'0 0.0
2017-Sep-15 06:00N 59°54' E 010°44'0 0.0
2017-Sep-15 05:28N 59°54' E 010°44'0 0.0
2017-Sep-15 04:58N 59°54' E 010°44'0 0.0
2017-Sep-15 04:28N 59°54' E 010°44'0 0.0
2017-Sep-15 03:59N 59°54' E 010°44'0 0.0
2017-Sep-15 03:29N 59°54' E 010°44'0 0.0
2017-Sep-15 02:59N 59°54' E 010°44'0 0.0
2017-Sep-15 02:30N 59°54' E 010°44'0 0.0
2017-Sep-15 02:00N 59°54' E 010°44'0 0.0
2017-Sep-15 01:30N 59°54' E 010°44'0 0.0
2017-Sep-15 00:58N 59°54' E 010°44'0 0.0
2017-Sep-15 00:28N 59°54' E 010°44'0 0.0
2017-Sep-14 23:58N 59°54' E 010°44'0 0.0
2017-Sep-14 23:29N 59°54' E 010°44'0 0.0
2017-Sep-14 22:59N 59°54' E 010°44'0 0.0
2017-Sep-14 22:29N 59°54' E 010°44'0 0.0
2017-Sep-14 22:00N 59°54' E 010°44'0 0.0
2017-Sep-14 21:30N 59°54' E 010°44'0 0.0
2017-Sep-14 21:00N 59°54' E 010°44'0 0.0
2017-Sep-14 20:28N 59°54' E 010°44'0 0.0
2017-Sep-14 19:58N 59°54' E 010°44'0 0.0
2017-Sep-14 19:28N 59°54' E 010°44'0 0.0
2017-Sep-14 18:59N 59°54' E 010°44'0 0.0
2017-Sep-14 18:29N 59°54' E 010°44'0 0.0
2017-Sep-14 17:59N 59°54' E 010°44'0 0.0
2017-Sep-14 17:24N 59°54' E 010°44'0 0.0
2017-Sep-14 17:00N 59°54' E 010°44'0 0.0
2017-Sep-14 16:30N 59°54' E 010°44'0 0.0
2017-Sep-14 15:58N 59°54' E 010°44'0 0.0
2017-Sep-14 15:28N 59°54' E 010°44'0 0.0
2017-Sep-14 14:58N 59°54' E 010°44'0 0.0
2017-Sep-14 14:29N 59°54' E 010°44'0 0.0
2017-Sep-14 13:59N 59°54' E 010°44'0 0.0
2017-Sep-14 13:29N 59°54' E 010°44'0 0.0
2017-Sep-14 13:00N 59°54' E 010°44'0 0.0
2017-Sep-14 12:30N 59°54' E 010°44'0 0.0
2017-Sep-14 12:00N 59°54' E 010°44'0 0.0
2017-Sep-14 11:28N 59°54' E 010°44'0 0.0
2017-Sep-14 10:58N 59°54' E 010°44'0 0.0
2017-Sep-14 10:28N 59°54' E 010°44'0 0.0
2017-Sep-14 09:59N 59°54' E 010°44'0 0.0
2017-Sep-14 09:29N 59°54' E 010°44'0 0.0
2017-Sep-14 08:59N 59°54' E 010°44'0 0.0
2017-Sep-14 08:30N 59°54' E 010°44'0 0.0
2017-Sep-14 08:00N 59°54' E 010°44'0 0.0
2017-Sep-14 07:30N 59°54' E 010°44'0 0.0
2017-Sep-14 06:58N 59°54' E 010°44'0 0.0
2017-Sep-14 06:28N 59°54' E 010°44'0 0.0
2017-Sep-14 05:58N 59°54' E 010°44'0 0.0
2017-Sep-14 05:29N 59°54' E 010°44'0 0.0
2017-Sep-14 04:59N 59°54' E 010°44'0 0.0
2017-Sep-14 04:29N 59°54' E 010°44'0 0.0
2017-Sep-14 04:00N 59°54' E 010°44'0 0.0
2017-Sep-14 03:24N 59°54' E 010°44'0 0.0
2017-Sep-14 03:00N 59°54' E 010°44'0 0.0
2017-Sep-14 02:28N 59°54' E 010°44'0 0.0
2017-Sep-14 01:58N 59°54' E 010°44'0 0.0
2017-Sep-14 01:28N 59°54' E 010°44'0 0.0
2017-Sep-14 00:59N 59°54' E 010°44'0 0.0
2017-Sep-14 00:29N 59°54' E 010°44'0 0.0
2017-Sep-13 23:59N 59°54' E 010°44'0 0.0
2017-Sep-13 23:30N 59°54' E 010°44'0 0.0
2017-Sep-13 23:00N 59°54' E 010°44'0 0.0
2017-Sep-13 22:30N 59°54' E 010°44'0 0.0
2017-Sep-13 21:58N 59°54' E 010°44'0 0.0
2017-Sep-13 21:28N 59°54' E 010°44'0 0.0
2017-Sep-13 20:58N 59°54' E 010°44'0 0.0
2017-Sep-13 20:29N 59°54' E 010°44'0 0.0
2017-Sep-13 19:59N 59°54' E 010°44'0 0.0
2017-Sep-13 19:29N 59°54' E 010°44'0 0.0
2017-Sep-13 18:54N 59°54' E 010°44'0 0.0
2017-Sep-13 18:30N 59°54' E 010°44'0 0.0
2017-Sep-13 18:00N 59°54' E 010°44'0 0.0
2017-Sep-13 17:28N 59°54' E 010°44'0 0.0
2017-Sep-13 16:58N 59°54' E 010°44'0 0.0
2017-Sep-13 16:28N 59°54' E 010°44'0 0.0
2017-Sep-13 15:59N 59°54' E 010°44'0 0.0
2017-Sep-13 15:29N 59°54' E 010°44'0 0.0
2017-Sep-13 14:59N 59°54' E 010°44'0 0.0
2017-Sep-13 14:30N 59°54' E 010°44'0 0.0
2017-Sep-13 14:00N 59°54' E 010°44'0 0.0
2017-Sep-13 13:30N 59°54' E 010°44'0 0.0
2017-Sep-13 12:58N 59°54' E 010°44'0 0.0
2017-Sep-13 12:28N 59°54' E 010°44'0 0.0
2017-Sep-13 11:58N 59°54' E 010°44'0 0.0
2017-Sep-13 11:29N 59°54' E 010°44'0 0.0
2017-Sep-13 10:59N 59°54' E 010°44'0 0.0
2017-Sep-13 10:29N 59°54' E 010°44'0 0.0
2017-Sep-13 10:00N 59°54' E 010°44'0 0.0
2017-Sep-13 09:30N 59°54' E 010°44'0 0.0
2017-Sep-13 09:00N 59°54' E 010°44'0 0.0
2017-Sep-13 08:28N 59°54' E 010°44'0 0.0
2017-Sep-13 07:58N 59°54' E 010°44'0 0.0
2017-Sep-13 07:28N 59°54' E 010°44'0 0.0
2017-Sep-13 06:59N 59°54' E 010°44'0 0.0
2017-Sep-13 06:29N 59°54' E 010°44'0 0.0
2017-Sep-13 05:59N 59°54' E 010°44'0 0.0
2017-Sep-13 05:30N 59°54' E 010°44'0 0.0
2017-Sep-13 05:00N 59°54' E 010°44'0 0.0
2017-Sep-13 04:30N 59°54' E 010°44'0 0.0
2017-Sep-13 03:58N 59°54' E 010°44'0 0.0
2017-Sep-13 03:28N 59°54' E 010°44'0 0.0
2017-Sep-13 02:58N 59°54' E 010°44'0 0.0
2017-Sep-13 02:29N 59°54' E 010°44'0 0.0
2017-Sep-13 01:59N 59°54' E 010°44'0 0.0
2017-Sep-13 01:29N 59°54' E 010°44'0 0.0
2017-Sep-13 01:00N 59°54' E 010°44'0 0.0
2017-Sep-13 00:30N 59°54' E 010°44'0 0.0
2017-Sep-13 00:00N 59°54' E 010°44'0 0.0
2017-Sep-12 23:28N 59°54' E 010°44'0 0.0
2017-Sep-12 22:58N 59°54' E 010°44'0 0.0
2017-Sep-12 22:29N 59°54' E 010°44'0 0.0
2017-Sep-12 21:59N 59°54' E 010°44'0 0.0
2017-Sep-12 21:29N 59°54' E 010°44'0 0.0
2017-Sep-12 20:59N 59°54' E 010°44'0 0.0
2017-Sep-12 20:30N 59°54' E 010°44'0 0.0
2017-Sep-12 20:00N 59°54' E 010°44'0 0.0
2017-Sep-12 19:30N 59°54' E 010°44'0 0.0
2017-Sep-12 19:00N 59°54' E 010°44'1 3.0
2017-Sep-12 18:30N 59°54' E 010°41'2 4.0
2017-Sep-12 18:00N 59°52' E 010°42'1 2.8
2017-Sep-12 17:30N 59°52' E 010°44'1 2.2
2017-Sep-12 17:00N 59°53' E 010°44'1 2.2
2017-Sep-12 16:31N 59°54' E 010°44'0 0.5
2017-Sep-12 16:00N 59°54' E 010°44'0 0.0
2017-Sep-12 15:30N 59°54' E 010°44'0 0.0
2017-Sep-12 15:00N 59°54' E 010°44'0 0.0
2017-Sep-12 14:28N 59°54' E 010°44'0 0.0
2017-Sep-12 13:58N 59°54' E 010°44'0 0.0
2017-Sep-12 13:28N 59°54' E 010°44'0 0.0
2017-Sep-12 12:59N 59°54' E 010°44'0 0.0
2017-Sep-12 12:29N 59°54' E 010°44'0 0.0
2017-Sep-12 11:59N 59°54' E 010°44'0 0.0
2017-Sep-12 11:30N 59°54' E 010°44'0 0.0
2017-Sep-12 11:00N 59°54' E 010°44'0 0.0
2017-Sep-12 10:30N 59°54' E 010°44'0 0.0
2017-Sep-12 09:58N 59°54' E 010°44'0 0.0
2017-Sep-12 09:28N 59°54' E 010°44'0 0.0
2017-Sep-12 08:59N 59°54' E 010°44'0 0.0
2017-Sep-12 08:29N 59°54' E 010°44'0 0.0
2017-Sep-12 07:59N 59°54' E 010°44'0 0.0
2017-Sep-12 07:30N 59°54' E 010°44'0 0.0
2017-Sep-12 07:00N 59°54' E 010°44'0 0.0
2017-Sep-12 06:30N 59°54' E 010°44'0 0.0
2017-Sep-12 06:00N 59°54' E 010°44'0 0.0
2017-Sep-12 05:28N 59°54' E 010°44'0 0.0
2017-Sep-12 04:58N 59°54' E 010°44'0 0.0
2017-Sep-12 04:29N 59°54' E 010°44'0 0.0
2017-Sep-12 03:59N 59°54' E 010°44'0 0.0
2017-Sep-12 03:29N 59°54' E 010°44'0 0.0
2017-Sep-12 03:00N 59°54' E 010°44'0 0.0
2017-Sep-12 02:30N 59°54' E 010°44'  
Track history (hours):
 
Tides and Currents Weather Stations Pressure Air Temp Water Temp Dewpoint Dewpoint Depression Visibility Wind Speed Wind Dir Waves Ship Positions

Christian Radich (Norway)

Last reported at 2017-Sep-22 02:00 UTC. Time now 2017-Sep-22 15:21 UTC.
Position N 53°10' E 004°21'.

Length 63 m; draft 5 m.

MMSI: 258373000.

Date/timePositionNaut miles runAvg speedWind from/ knotsBaromVisibWave heightAir tempDewpointWater temp
2017-Sep-22 02:00N 53°10' E 004°21'3 5.8
2017-Sep-22 01:30N 53°12' E 004°24'3 5.9
2017-Sep-22 01:00N 53°15' E 004°26'3 5.9
2017-Sep-22 00:31N 53°18' E 004°28'3 5.7
2017-Sep-22 00:00N 53°20' E 004°29'3 5.7
2017-Sep-21 23:31N 53°23' E 004°31'3 6.7
2017-Sep-21 23:00N 53°26' E 004°33'3 6.4
2017-Sep-21 22:30N 53°29' E 004°35'3 6.4
2017-Sep-21 22:01N 53°32' E 004°37'3 6.1
2017-Sep-21 21:27N 53°35' E 004°39'2 4.6
2017-Sep-21 20:58N 53°37' E 004°42'3 5.6
2017-Sep-21 20:31N 53°37' E 004°46'3 5.4
2017-Sep-21 20:01N 53°38' E 004°50'3 5.1
2017-Sep-21 19:29N 53°39' E 004°54'2 4.8
2017-Sep-21 19:01N 53°40' E 004°58'2 4.7
2017-Sep-21 18:30N 53°40' E 005°02'2 3.3
2017-Sep-21 18:00N 53°41' E 005°04'28 5.4
2017-Sep-21 12:52N 53°51' E 005°48'2 5.5
2017-Sep-21 12:29N 53°52' E 005°51'4 6.0
2017-Sep-21 11:47N 53°53' E 005°58'9 5.2
2017-Sep-21 10:04N 53°58' E 006°11'75 4.9
2017-Sep-20 18:38N 55°12' E 006°29'1 5.7
2017-Sep-20 18:22N 55°13' E 006°29'2 5.6
2017-Sep-20 17:58N 55°16' E 006°29'2 5.0
2017-Sep-20 17:30N 55°18' E 006°29'3 5.4
2017-Sep-20 17:00N 55°21' E 006°28'3 5.4
2017-Sep-20 16:27N 55°24' E 006°28'3 5.5
2017-Sep-20 15:55N 55°27' E 006°27'37 5.1
2017-Sep-20 08:39N 56°03' E 006°24'1 5.2
2017-Sep-20 08:29N 56°04' E 006°24'2 4.6
2017-Sep-20 08:00N 56°06' E 006°24'2 3.1
2017-Sep-20 07:30N 56°08' E 006°24'2 3.1
2017-Sep-20 07:00N 56°10' E 006°24'114 4.9
2017-Sep-19 07:59N 57°46' E 008°13'3 6.8
2017-Sep-19 07:30N 57°50' E 008°14'4 8.1
2017-Sep-19 07:00N 57°52' E 008°21'18 8.3
2017-Sep-19 04:49N 58°03' E 008°48'3 9.0
2017-Sep-19 04:29N 58°05' E 008°52'7 8.9
2017-Sep-19 03:41N 58°10' E 009°01'2 9.2
2017-Sep-19 03:30N 58°11' E 009°03'37 8.8
2017-Sep-18 23:19N 58°37' E 009°55'3 8.5
2017-Sep-18 23:00N 58°38' E 009°59'4 8.2
2017-Sep-18 22:30N 58°40' E 010°06'4 7.6
2017-Sep-18 22:01N 58°42' E 010°12'4 7.3
2017-Sep-18 21:30N 58°45' E 010°16'3 7.0
2017-Sep-18 21:00N 58°48' E 010°20'3 6.4
2017-Sep-18 20:30N 58°51' E 010°24'3 6.4
2017-Sep-18 20:00N 58°53' E 010°28'3 6.7
2017-Sep-18 19:30N 58°56' E 010°32'3 6.6
2017-Sep-18 19:01N 58°58' E 010°36'4 7.1
2017-Sep-18 18:30N 59°02' E 010°37'4 7.3
2017-Sep-18 18:00N 59°05' E 010°38'4 7.5
2017-Sep-18 17:30N 59°09' E 010°38'4 7.9
2017-Sep-18 17:00N 59°13' E 010°37'4 8.0
2017-Sep-18 16:30N 59°17' E 010°36'4 7.8
2017-Sep-18 16:00N 59°21' E 010°35'4 8.1
2017-Sep-18 15:30N 59°25' E 010°33'4 8.1
2017-Sep-18 15:00N 59°29' E 010°34'4 7.7
2017-Sep-18 14:30N 59°33' E 010°36'3 6.8
2017-Sep-18 14:00N 59°36' E 010°37'3 6.9
2017-Sep-18 13:30N 59°39' E 010°37'4 7.5
2017-Sep-18 13:00N 59°43' E 010°35'4 7.9
2017-Sep-18 12:30N 59°47' E 010°34'4 7.6
2017-Sep-18 12:00N 59°51' E 010°36'4 7.8
2017-Sep-18 11:29N 59°54' E 010°42'1 3.1
2017-Sep-18 11:00N 59°54' E 010°44'0 0.0
2017-Sep-18 10:28N 59°54' E 010°44'0 0.0
2017-Sep-18 09:58N 59°54' E 010°44'0 0.0
2017-Sep-18 09:28N 59°54' E 010°44'0 0.0
2017-Sep-18 08:59N 59°54' E 010°44'0 0.0
2017-Sep-18 08:29N 59°54' E 010°44'0 0.0
2017-Sep-18 07:59N 59°54' E 010°44'0 0.0
2017-Sep-18 07:29N 59°54' E 010°44'0 0.5
2017-Sep-18 07:00N 59°54' E 010°44'0 0.3
2017-Sep-18 06:30N 59°54' E 010°44'0 0.0
2017-Sep-18 05:58N 59°54' E 010°44'0 0.0
2017-Sep-18 05:28N 59°54' E 010°44'0 0.0
2017-Sep-18 04:59N 59°54' E 010°44'0 0.0
2017-Sep-18 04:29N 59°54' E 010°44'0 0.0
2017-Sep-18 03:59N 59°54' E 010°44'0 0.0
2017-Sep-18 03:29N 59°54' E 010°44'0 0.0
2017-Sep-18 03:00N 59°54' E 010°44'0 0.0
2017-Sep-18 02:30N 59°54' E 010°44'0 0.0
2017-Sep-18 02:00N 59°54' E 010°44'0 0.0
2017-Sep-18 01:28N 59°54' E 010°44'0 0.0
2017-Sep-18 00:58N 59°54' E 010°44'0 0.0
2017-Sep-18 00:29N 59°54' E 010°44'0 0.0
2017-Sep-17 23:59N 59°54' E 010°44'0 0.0
2017-Sep-17 23:29N 59°54' E 010°44'0 0.0
2017-Sep-17 23:00N 59°54' E 010°44'0 0.0
2017-Sep-17 22:30N 59°54' E 010°44'0 0.0
2017-Sep-17 22:00N 59°54' E 010°44'0 0.0
2017-Sep-17 21:31N 59°54' E 010°44'0 0.0
2017-Sep-17 20:58N 59°54' E 010°44'0 0.0
2017-Sep-17 20:28N 59°54' E 010°44'0 0.0
2017-Sep-17 19:59N 59°54' E 010°44'0 0.0
2017-Sep-17 19:29N 59°54' E 010°44'0 0.0
2017-Sep-17 18:59N 59°54' E 010°44'0 0.0
2017-Sep-17 18:29N 59°54' E 010°44'0 0.0
2017-Sep-17 18:00N 59°54' E 010°44'0 0.0
2017-Sep-17 17:30N 59°54' E 010°44'0 0.0
2017-Sep-17 17:00N 59°54' E 010°44'0 0.0
2017-Sep-17 16:28N 59°54' E 010°44'0 0.0
2017-Sep-17 15:58N 59°54' E 010°44'0 0.0
2017-Sep-17 15:29N 59°54' E 010°44'0 0.0
2017-Sep-17 14:59N 59°54' E 010°44'0 0.0
2017-Sep-17 14:29N 59°54' E 010°44'0 0.0
2017-Sep-17 13:59N 59°54' E 010°44'0 0.0
2017-Sep-17 13:30N 59°54' E 010°44'0 0.0
2017-Sep-17 13:00N 59°54' E 010°44'0 0.0
2017-Sep-17 12:30N 59°54' E 010°44'0 0.0
2017-Sep-17 11:58N 59°54' E 010°44'0 0.0
2017-Sep-17 11:28N 59°54' E 010°44'0 0.0
2017-Sep-17 10:59N 59°54' E 010°44'0 0.0
2017-Sep-17 10:29N 59°54' E 010°44'0 0.0
2017-Sep-17 09:59N 59°54' E 010°44'0 0.0
2017-Sep-17 09:30N 59°54' E 010°44'0 0.0
2017-Sep-17 09:00N 59°54' E 010°44'0 0.0
2017-Sep-17 08:30N 59°54' E 010°44'0 0.0
2017-Sep-17 08:00N 59°54' E 010°44'0 0.0
2017-Sep-17 07:28N 59°54' E 010°44'0 0.0
2017-Sep-17 06:58N 59°54' E 010°44'0 0.0
2017-Sep-17 06:29N 59°54' E 010°44'0 0.0
2017-Sep-17 05:59N 59°54' E 010°44'0 0.0
2017-Sep-17 05:29N 59°54' E 010°44'0 0.0
2017-Sep-17 05:00N 59°54' E 010°44'0 0.0
2017-Sep-17 04:30N 59°54' E 010°44'0 0.0
2017-Sep-17 04:00N 59°54' E 010°44'0 0.0
2017-Sep-17 03:31N 59°54' E 010°44'0 0.0
2017-Sep-17 02:58N 59°54' E 010°44'0 0.0
2017-Sep-17 02:28N 59°54' E 010°44'0 0.0
2017-Sep-17 01:59N 59°54' E 010°44'0 0.0
2017-Sep-17 01:29N 59°54' E 010°44'0 0.0
2017-Sep-17 00:59N 59°54' E 010°44'0 0.0
2017-Sep-17 00:30N 59°54' E 010°44'0 0.0
2017-Sep-17 00:00N 59°54' E 010°44'0 0.0
2017-Sep-16 23:30N 59°54' E 010°44'0 0.0
2017-Sep-16 22:58N 59°54' E 010°44'0 0.0
2017-Sep-16 22:25N 59°54' E 010°44'0 0.0
2017-Sep-16 21:58N 59°54' E 010°44'0 0.0
2017-Sep-16 21:29N 59°54' E 010°44'0 0.0
2017-Sep-16 20:59N 59°54' E 010°44'0 0.0
2017-Sep-16 20:29N 59°54' E 010°44'0 0.0
2017-Sep-16 20:00N 59°54' E 010°44'0 0.0
2017-Sep-16 19:30N 59°54' E 010°44'0 0.0
2017-Sep-16 19:00N 59°54' E 010°44'0 0.0
2017-Sep-16 18:28N 59°54' E 010°44'0 0.0
2017-Sep-16 17:58N 59°54' E 010°44'0 0.0
2017-Sep-16 17:28N 59°54' E 010°44'0 0.0
2017-Sep-16 16:58N 59°54' E 010°44'0 0.0
2017-Sep-16 16:28N 59°54' E 010°44'0 0.0
2017-Sep-16 15:58N 59°54' E 010°44'0 0.0
2017-Sep-16 15:29N 59°54' E 010°44'0 0.0
2017-Sep-16 14:59N 59°54' E 010°44'0 0.0
2017-Sep-16 14:29N 59°54' E 010°44'0 0.0
2017-Sep-16 14:00N 59°54' E 010°44'0 0.0
2017-Sep-16 13:30N 59°54' E 010°44'0 0.0
2017-Sep-16 13:00N 59°54' E 010°44'0 0.0
2017-Sep-16 12:28N 59°54' E 010°44'0 0.0
2017-Sep-16 11:58N 59°54' E 010°44'0 0.0
2017-Sep-16 11:28N 59°54' E 010°44'0 0.0
2017-Sep-16 10:59N 59°54' E 010°44'0 0.0
2017-Sep-16 10:29N 59°54' E 010°44'0 0.0
2017-Sep-16 09:59N 59°54' E 010°44'0 0.0
2017-Sep-16 09:30N 59°54' E 010°44'0 0.0
2017-Sep-16 09:00N 59°54' E 010°44'0 0.0
2017-Sep-16 08:30N 59°54' E 010°44'0 0.0
2017-Sep-16 07:58N 59°54' E 010°44'0 0.0
2017-Sep-16 07:28N 59°54' E 010°44'0 0.0
2017-Sep-16 06:58N 59°54' E 010°44'0 0.0
2017-Sep-16 06:29N 59°54' E 010°44'0 0.0
2017-Sep-16 05:59N 59°54' E 010°44'0 0.0
2017-Sep-16 05:29N 59°54' E 010°44'0 0.0
2017-Sep-16 05:00N 59°54' E 010°44'0 0.0
2017-Sep-16 04:30N 59°54' E 010°44'0 0.0
2017-Sep-16 03:55N 59°54' E 010°44'0 0.0
2017-Sep-16 03:28N 59°54' E 010°44'0 0.0
2017-Sep-16 02:58N 59°54' E 010°44'0 0.0
2017-Sep-16 02:29N 59°54' E 010°44'0 0.0
2017-Sep-16 01:59N 59°54' E 010°44'0 0.0
2017-Sep-16 01:29N 59°54' E 010°44'0 0.0
2017-Sep-16 01:00N 59°54' E 010°44'0 0.0
2017-Sep-16 00:30N 59°54' E 010°44'0 0.0
2017-Sep-16 00:00N 59°54' E 010°44'0 0.0
2017-Sep-15 23:31N 59°54' E 010°44'0 0.0
2017-Sep-15 22:58N 59°54' E 010°44'0 0.0
2017-Sep-15 22:28N 59°54' E 010°44'0 0.0
2017-Sep-15 21:59N 59°54' E 010°44'0 0.0
2017-Sep-15 21:29N 59°54' E 010°44'0 0.0
2017-Sep-15 20:59N 59°54' E 010°44'0 0.0
2017-Sep-15 20:30N 59°54' E 010°44'0 0.0
2017-Sep-15 20:00N 59°54' E 010°44'0 0.0
2017-Sep-15 19:30N 59°54' E 010°44'0 0.0
2017-Sep-15 18:58N 59°54' E 010°44'0 0.0
2017-Sep-15 18:28N 59°54' E 010°44'0 0.0
2017-Sep-15 17:58N 59°54' E 010°44'0 0.0
2017-Sep-15 17:29N 59°54' E 010°44'0 0.0
2017-Sep-15 16:59N 59°54' E 010°44'0 0.0
2017-Sep-15 16:29N 59°54' E 010°44'0 0.0
2017-Sep-15 16:00N 59°54' E 010°44'0 0.0
2017-Sep-15 15:30N 59°54' E 010°44'0 0.0
2017-Sep-15 15:00N 59°54' E 010°44'0 0.0
2017-Sep-15 14:28N 59°54' E 010°44'0 0.0
2017-Sep-15 13:58N 59°54' E 010°44'0 0.0
2017-Sep-15 13:28N 59°54' E 010°44'0 0.0
2017-Sep-15 12:59N 59°54' E 010°44'0 0.0
2017-Sep-15 12:29N 59°54' E 010°44'0 0.0
2017-Sep-15 11:59N 59°54' E 010°44'0 0.0
2017-Sep-15 11:30N 59°54' E 010°44'0 0.0
2017-Sep-15 11:00N 59°54' E 010°44'0 0.0
2017-Sep-15 10:30N 59°54' E 010°44'0 0.0
2017-Sep-15 09:58N 59°54' E 010°44'0 0.0
2017-Sep-15 09:28N 59°54' E 010°44'0 0.0
2017-Sep-15 08:58N 59°54' E 010°44'0 0.0
2017-Sep-15 08:29N 59°54' E 010°44'0 0.0
2017-Sep-15 07:59N 59°54' E 010°44'0 0.0
2017-Sep-15 07:29N 59°54' E 010°44'0 0.0
2017-Sep-15 07:00N 59°54' E 010°44'0 0.0
2017-Sep-15 06:30N 59°54' E 010°44'0 0.0
2017-Sep-15 06:00N 59°54' E 010°44'0 0.0
2017-Sep-15 05:28N 59°54' E 010°44'0 0.0
2017-Sep-15 04:58N 59°54' E 010°44'0 0.0
2017-Sep-15 04:28N 59°54' E 010°44'0 0.0
2017-Sep-15 03:59N 59°54' E 010°44'0 0.0
2017-Sep-15 03:29N 59°54' E 010°44'0 0.0
2017-Sep-15 02:59N 59°54' E 010°44'0 0.0
2017-Sep-15 02:30N 59°54' E 010°44'0 0.0
2017-Sep-15 02:00N 59°54' E 010°44'0 0.0
2017-Sep-15 01:30N 59°54' E 010°44'0 0.0
2017-Sep-15 00:58N 59°54' E 010°44'0 0.0
2017-Sep-15 00:28N 59°54' E 010°44'0 0.0
2017-Sep-14 23:58N 59°54' E 010°44'0 0.0
2017-Sep-14 23:29N 59°54' E 010°44'0 0.0
2017-Sep-14 22:59N 59°54' E 010°44'0 0.0
2017-Sep-14 22:29N 59°54' E 010°44'0 0.0
2017-Sep-14 22:00N 59°54' E 010°44'0 0.0
2017-Sep-14 21:30N 59°54' E 010°44'0 0.0
2017-Sep-14 21:00N 59°54' E 010°44'0 0.0
2017-Sep-14 20:28N 59°54' E 010°44'0 0.0
2017-Sep-14 19:58N 59°54' E 010°44'0 0.0
2017-Sep-14 19:28N 59°54' E 010°44'0 0.0
2017-Sep-14 18:59N 59°54' E 010°44'0 0.0
2017-Sep-14 18:29N 59°54' E 010°44'0 0.0
2017-Sep-14 17:59N 59°54' E 010°44'0 0.0
2017-Sep-14 17:24N 59°54' E 010°44'0 0.0
2017-Sep-14 17:00N 59°54' E 010°44'0 0.0
2017-Sep-14 16:30N 59°54' E 010°44'0 0.0
2017-Sep-14 15:58N 59°54' E 010°44'0 0.0
2017-Sep-14 15:28N 59°54' E 010°44'0 0.0
2017-Sep-14 14:58N 59°54' E 010°44'0 0.0
2017-Sep-14 14:29N 59°54' E 010°44'0 0.0
2017-Sep-14 13:59N 59°54' E 010°44'0 0.0
2017-Sep-14 13:29N 59°54' E 010°44'0 0.0
2017-Sep-14 13:00N 59°54' E 010°44'0 0.0
2017-Sep-14 12:30N 59°54' E 010°44'0 0.0
2017-Sep-14 12:00N 59°54' E 010°44'0 0.0
2017-Sep-14 11:28N 59°54' E 010°44'0 0.0
2017-Sep-14 10:58N 59°54' E 010°44'0 0.0
2017-Sep-14 10:28N 59°54' E 010°44'0 0.0
2017-Sep-14 09:59N 59°54' E 010°44'0 0.0
2017-Sep-14 09:29N 59°54' E 010°44'0 0.0
2017-Sep-14 08:59N 59°54' E 010°44'0 0.0
2017-Sep-14 08:30N 59°54' E 010°44'0 0.0
2017-Sep-14 08:00N 59°54' E 010°44'0 0.0
2017-Sep-14 07:30N 59°54' E 010°44'0 0.0
2017-Sep-14 06:58N 59°54' E 010°44'0 0.0
2017-Sep-14 06:28N 59°54' E 010°44'0 0.0
2017-Sep-14 05:58N 59°54' E 010°44'0 0.0
2017-Sep-14 05:29N 59°54' E 010°44'0 0.0
2017-Sep-14 04:59N 59°54' E 010°44'0 0.0
2017-Sep-14 04:29N 59°54' E 010°44'0 0.0
2017-Sep-14 04:00N 59°54' E 010°44'0 0.0
2017-Sep-14 03:24N 59°54' E 010°44'0 0.0
2017-Sep-14 03:00N 59°54' E 010°44'0 0.0
2017-Sep-14 02:28N 59°54' E 010°44'0 0.0
2017-Sep-14 01:58N 59°54' E 010°44'0 0.0
2017-Sep-14 01:28N 59°54' E 010°44'0 0.0
2017-Sep-14 00:59N 59°54' E 010°44'0 0.0
2017-Sep-14 00:29N 59°54' E 010°44'0 0.0
2017-Sep-13 23:59N 59°54' E 010°44'0 0.0
2017-Sep-13 23:30N 59°54' E 010°44'0 0.0
2017-Sep-13 23:00N 59°54' E 010°44'0 0.0
2017-Sep-13 22:30N 59°54' E 010°44'0 0.0
2017-Sep-13 21:58N 59°54' E 010°44'0 0.0
2017-Sep-13 21:28N 59°54' E 010°44'0 0.0
2017-Sep-13 20:58N 59°54' E 010°44'0 0.0
2017-Sep-13 20:29N 59°54' E 010°44'0 0.0
2017-Sep-13 19:59N 59°54' E 010°44'0 0.0
2017-Sep-13 19:29N 59°54' E 010°44'0 0.0
2017-Sep-13 18:54N 59°54' E 010°44'0 0.0
2017-Sep-13 18:30N 59°54' E 010°44'0 0.0
2017-Sep-13 18:00N 59°54' E 010°44'0 0.0
2017-Sep-13 17:28N 59°54' E 010°44'0 0.0
2017-Sep-13 16:58N 59°54' E 010°44'0 0.0
2017-Sep-13 16:28N 59°54' E 010°44'0 0.0
2017-Sep-13 15:59N 59°54' E 010°44'0 0.0
2017-Sep-13 15:29N 59°54' E 010°44'0 0.0
2017-Sep-13 14:59N 59°54' E 010°44'0 0.0
2017-Sep-13 14:30N 59°54' E 010°44'0 0.0
2017-Sep-13 14:00N 59°54' E 010°44'0 0.0
2017-Sep-13 13:30N 59°54' E 010°44'0 0.0
2017-Sep-13 12:58N 59°54' E 010°44'0 0.0
2017-Sep-13 12:28N 59°54' E 010°44'0 0.0
2017-Sep-13 11:58N 59°54' E 010°44'0 0.0
2017-Sep-13 11:29N 59°54' E 010°44'0 0.0
2017-Sep-13 10:59N 59°54' E 010°44'0 0.0
2017-Sep-13 10:29N 59°54' E 010°44'0 0.0
2017-Sep-13 10:00N 59°54' E 010°44'0 0.0
2017-Sep-13 09:30N 59°54' E 010°44'0 0.0
2017-Sep-13 09:00N 59°54' E 010°44'0 0.0
2017-Sep-13 08:28N 59°54' E 010°44'0 0.0
2017-Sep-13 07:58N 59°54' E 010°44'0 0.0
2017-Sep-13 07:28N 59°54' E 010°44'0 0.0
2017-Sep-13 06:59N 59°54' E 010°44'0 0.0
2017-Sep-13 06:29N 59°54' E 010°44'0 0.0
2017-Sep-13 05:59N 59°54' E 010°44'0 0.0
2017-Sep-13 05:30N 59°54' E 010°44'0 0.0
2017-Sep-13 05:00N 59°54' E 010°44'0 0.0
2017-Sep-13 04:30N 59°54' E 010°44'0 0.0
2017-Sep-13 03:58N 59°54' E 010°44'0 0.0
2017-Sep-13 03:28N 59°54' E 010°44'0 0.0
2017-Sep-13 02:58N 59°54' E 010°44'0 0.0
2017-Sep-13 02:29N 59°54' E 010°44'0 0.0
2017-Sep-13 01:59N 59°54' E 010°44'0 0.0
2017-Sep-13 01:29N 59°54' E 010°44'0 0.0
2017-Sep-13 01:00N 59°54' E 010°44'0 0.0
2017-Sep-13 00:30N 59°54' E 010°44'0 0.0
2017-Sep-13 00:00N 59°54' E 010°44'0 0.0
2017-Sep-12 23:28N 59°54' E 010°44'0 0.0
2017-Sep-12 22:58N 59°54' E 010°44'0 0.0
2017-Sep-12 22:29N 59°54' E 010°44'0 0.0
2017-Sep-12 21:59N 59°54' E 010°44'0 0.0
2017-Sep-12 21:29N 59°54' E 010°44'0 0.0
2017-Sep-12 20:59N 59°54' E 010°44'0 0.0
2017-Sep-12 20:30N 59°54' E 010°44'0 0.0
2017-Sep-12 20:00N 59°54' E 010°44'0 0.0
2017-Sep-12 19:30N 59°54' E 010°44'0 0.0
2017-Sep-12 19:00N 59°54' E 010°44'1 3.0
2017-Sep-12 18:30N 59°54' E 010°41'2 4.0
2017-Sep-12 18:00N 59°52' E 010°42'1 2.8
2017-Sep-12 17:30N 59°52' E 010°44'1 2.2
2017-Sep-12 17:00N 59°53' E 010°44'1 2.2
2017-Sep-12 16:31N 59°54' E 010°44'0 0.5
2017-Sep-12 16:00N 59°54' E 010°44'0 0.0
2017-Sep-12 15:30N 59°54' E 010°44'0 0.0
2017-Sep-12 15:00N 59°54' E 010°44'0 0.0
2017-Sep-12 14:28N 59°54' E 010°44'0 0.0
2017-Sep-12 13:58N 59°54' E 010°44'0 0.0
2017-Sep-12 13:28N 59°54' E 010°44'0 0.0
2017-Sep-12 12:59N 59°54' E 010°44'0 0.0
2017-Sep-12 12:29N 59°54' E 010°44'0 0.0
2017-Sep-12 11:59N 59°54' E 010°44'0 0.0
2017-Sep-12 11:30N 59°54' E 010°44'0 0.0
2017-Sep-12 11:00N 59°54' E 010°44'0 0.0
2017-Sep-12 10:30N 59°54' E 010°44'0 0.0
2017-Sep-12 09:58N 59°54' E 010°44'0 0.0
2017-Sep-12 09:28N 59°54' E 010°44'0 0.0
2017-Sep-12 08:59N 59°54' E 010°44'0 0.0
2017-Sep-12 08:29N 59°54' E 010°44'0 0.0
2017-Sep-12 07:59N 59°54' E 010°44'0 0.0
2017-Sep-12 07:30N 59°54' E 010°44'0 0.0
2017-Sep-12 07:00N 59°54' E 010°44'0 0.0
2017-Sep-12 06:30N 59°54' E 010°44'0 0.0
2017-Sep-12 06:00N 59°54' E 010°44'0 0.0
2017-Sep-12 05:28N 59°54' E 010°44'0 0.0
2017-Sep-12 04:58N 59°54' E 010°44'0 0.0
2017-Sep-12 04:29N 59°54' E 010°44'0 0.0
2017-Sep-12 03:59N 59°54' E 010°44'0 0.0
2017-Sep-12 03:29N 59°54' E 010°44'0 0.0
2017-Sep-12 03:00N 59°54' E 010°44'0 0.0
2017-Sep-12 02:30N 59°54' E 010°44'  

Dump ship's entire track history